M I D A S
Marine Information and Data Acquisition System
Tripno 2303 of the Zeeleeuw from 2012-03-06 08:06:39 to 2012-03-06 15:37:02
Back to CruiseResearch ActivitiesStationsMapUnderway DataData graphs

EquipmentUnitsComments
TimeDGPSUTC
LatitudeDGPSDM.mWGS84
LongitudeDGPSDM.mWGS84
SpeedMeteo Stationm/sRelative wind speed
DirectionMeteo StationdegRelative wind direction
TemperatureMeteo Stationdeg CelciusAir temperature
PressureMeteo StationPaAtmospheric pressure
HumidityMeteo Station%Relative humidity
Missing or incorrect values are displayed as -999
Metereological data collected by the RV Zeeleeuw from 2012-03-06 07:05:44 to 2012-03-06 15:48:34
Time Latitude Longitude Speed Direction Temperature Pressure Humidity
2012-03-06 07:06 51°13.639 2°56.015 0.1 302 4 102140 52
2012-03-06 07:07 51°13.639 2°56.016 -999 24 -999 -999 -999
2012-03-06 07:08 51°13.639 2°56.016 1.2 307 4 102150 52
2012-03-06 07:09 51°13.639 2°56.016 0.2 302 4 102150 51
2012-03-06 07:10 51°13.638 2°56.016 0.1 312 4 102150 52
2012-03-06 07:11 51°13.638 2°56.016 0.6 311 4 102160 52
2012-03-06 07:12 51°13.637 2°56.017 2.7 311 4 102160 52
2012-03-06 07:13 51°13.637 2°56.017 0.4 302 4 102160 52
2012-03-06 07:14 51°13.637 2°56.016 1 307 4 102160 53
2012-03-06 07:15 51°13.636 2°56.015 0.5 302 4.1 102160 52
2012-03-06 07:16 51°13.637 2°56.015 1.7 302 4.1 102170 51
2012-03-06 07:17 51°13.636 2°56.015 2 309 4.1 102170 52
2012-03-06 07:18 51°13.637 2°56.016 3.5 304 4 102170 51
2012-03-06 07:19 51°13.638 2°56.016 2.3 311 4 102170 51
2012-03-06 07:20 51°13.638 2°56.016 1.9 304 4 102180 53
2012-03-06 07:21 51°13.638 2°56.016 2 308 4 102180 52
2012-03-06 07:22 51°13.637 2°56.016 1.1 304 4 102180 51
2012-03-06 07:23 51°13.637 2°56.017 1.8 311 4 102180 53
2012-03-06 07:24 51°13.637 2°56.017 2.4 309 4 102180 53
2012-03-06 07:25 51°13.637 2°56.016 1.9 303 4 102190 53
2012-03-06 07:26 51°13.637 2°56.016 1 308 4 102190 52
2012-03-06 07:27 51°13.637 2°56.016 1.3 307 4 102190 53
2012-03-06 07:28 51°13.636 2°56.016 1.2 310 4 102190 52
2012-03-06 07:29 51°13.636 2°56.016 1.2 311 4 102190 52
2012-03-06 07:30 51°13.636 2°56.016 0.1 304 4 102190 52
2012-03-06 07:31 51°13.637 2°56.016 2.8 309 4 102190 52
2012-03-06 07:32 51°13.637 2°56.016 1 308 4 102190 52
2012-03-06 07:33 51°13.638 2°56.016 1.1 311 4 102190 52
2012-03-06 07:34 51°13.638 2°56.016 0.7 308 4 102200 52
2012-03-06 07:35 51°13.638 2°56.016 1.8 301 4.1 102190 53
2012-03-06 07:36 51°13.637 2°56.016 0.1 302 4.1 102200 53
2012-03-06 07:37 51°13.636 2°56.015 2.5 303 4.1 102200 52
2012-03-06 07:38 51°13.637 2°56.016 1.5 302 4.1 102200 53
2012-03-06 07:39 51°13.637 2°56.016 0.5 309 4.1 102200 52
2012-03-06 07:40 51°13.637 2°56.016 1.2 307 4.1 102200 52
2012-03-06 07:41 51°13.637 2°56.016 3.1 310 4.1 102200 52
2012-03-06 07:42 51°13.636 2°56.016 0.9 302 4.1 102200 53
2012-03-06 07:43 51°13.636 2°56.015 0.5 302 4.1 102210 52
2012-03-06 07:44 51°13.637 2°56.016 0.2 307 4.1 102210 52
2012-03-06 07:45 51°13.636 2°56.016 1 302 4.1 102210 52
2012-03-06 07:46 51°13.636 2°56.016 0.8 286 4.1 102210 52
2012-03-06 07:47 51°13.637 2°56.016 1.1 309 4.1 102210 52
2012-03-06 07:48 51°13.638 2°56.016 2 304 4.1 102210 52
2012-03-06 07:49 51°13.637 2°56.016 1.1 307 4.1 102220 52
2012-03-06 07:50 51°13.638 2°56.017 1.7 303 4.2 102210 52
2012-03-06 07:51 51°13.637 2°56.016 1.7 304 4.2 102210 52
2012-03-06 07:52 51°13.637 2°56.015 0.1 307 4.2 102210 52
2012-03-06 07:53 51°13.637 2°56.016 1.3 311 4.2 102210 52
2012-03-06 07:54 51°13.636 2°56.016 3.3 302 4.2 102210 52
2012-03-06 07:55 51°13.635 2°56.016 2.9 308 4.2 102220 52
2012-03-06 07:56 51°13.634 2°56.015 1.7 309 4.2 102210 52
2012-03-06 07:57 51°13.653 2°55.945 0.9 301 4.2 102220 53
2012-03-06 07:58 51°13.671 2°55.868 1.8 308 4.2 102220 53
2012-03-06 07:59 51°13.696 2°55.779 2.1 52 4.2 102220 52
2012-03-06 08:00 51°13.749 2°55.68 2.7 56 4.2 102220 52
2012-03-06 08:01 51°13.831 2°55.626 3.4 58 4.2 102230 52
2012-03-06 08:02 51°13.923 2°55.636 3 52 4.2 102230 52
2012-03-06 08:03 51°13.966 2°55.668 1.4 57 4.5 102230 54
2012-03-06 08:04 51°13.983 2°55.6 3.4 344 4.5 102220 53
2012-03-06 08:05 51°14.074 2°55.479 5.4 348 4.4 102220 52
2012-03-06 08:06 51°14.2 2°55.353 5.6 348 4.3 102230 52
2012-03-06 08:07 51°14.333 2°55.215 6.2 350 4.3 102220 52
2012-03-06 08:08 51°14.474 2°55.076 7 353 4.2 102220 51
2012-03-06 08:09 51°14.61 2°54.927 6.8 360 4.2 102210 52
2012-03-06 08:10 51°14.741 2°54.751 7.9 353 4.2 102210 52
2012-03-06 08:11 51°14.882 2°54.572 6.8 351 4.2 102210 53
2012-03-06 08:12 51°15.044 2°54.465 8.5 348 4.2 102210 52
2012-03-06 08:12 51°13.592 2°56.194 0.8 309 4 102140 52
2012-03-06 08:13 51°15.212 2°54.418 10.4 349 4.2 102210 52
2012-03-06 08:14 51°15.377 2°54.359 8 349 4.1 102210 53
2012-03-06 08:15 51°15.546 2°54.344 8 346 4.1 102210 53
2012-03-06 08:16 51°15.714 2°54.303 9.3 344 4.1 102210 52
2012-03-06 08:17 51°15.877 2°54.321 7.1 345 4.1 102220 53
2012-03-06 08:18 51°16.041 2°54.317 8.6 346 4.1 102210 53
2012-03-06 08:19 51°16.203 2°54.274 7.7 348 4.1 102220 53
2012-03-06 08:20 51°16.294 2°54.318 7 337 4.1 102210 53
2012-03-06 08:21 51°16.309 2°54.394 5.5 305 4.1 102230 53
2012-03-06 08:22 51°16.296 2°54.406 5.4 306 4.1 102230 52
2012-03-06 08:23 51°16.282 2°54.403 5.5 303 4.2 102230 54
2012-03-06 08:24 51°16.266 2°54.397 7 310 4.3 102240 52
2012-03-06 08:25 51°16.251 2°54.392 5.4 305 4.3 102230 54
2012-03-06 08:26 51°16.234 2°54.387 5.9 304 4.2 102240 54
2012-03-06 08:27 51°16.217 2°54.383 5.6 307 4.3 102230 53
2012-03-06 08:28 51°16.199 2°54.378 6.3 307 4.3 102230 54
2012-03-06 08:29 51°16.183 2°54.376 6.5 310 4.3 102230 53
2012-03-06 08:30 51°16.167 2°54.373 5.8 308 4.3 102230 53
2012-03-06 08:31 51°16.151 2°54.369 5.4 302 4.3 102230 52
2012-03-06 08:32 51°16.134 2°54.366 5.6 308 4.3 102230 54
2012-03-06 08:33 51°16.116 2°54.364 5.4 284 4.3 102230 53
2012-03-06 08:34 51°16.098 2°54.364 5.6 310 4.4 102230 53
2012-03-06 08:35 51°16.081 2°54.362 4.7 286 4.4 102230 53
2012-03-06 08:36 51°16.057 2°54.363 5.2 303 4.3 102230 53
2012-03-06 08:37 51°16.005 2°54.326 2.6 51 4.4 102230 54
2012-03-06 08:38 51°16.005 2°54.223 5.2 10 4.4 102240 52
2012-03-06 08:39 51°16.082 2°54.115 5.7 4 4.3 102230 53
2012-03-06 08:40 51°16.207 2°53.917 6.1 356 4.3 102220 53
2012-03-06 08:41 51°16.356 2°53.71 7.1 352 4.2 102220 53
2012-03-06 08:42 51°16.515 2°53.524 7.7 353 4.2 102240 53
2012-03-06 08:43 51°16.662 2°53.312 6.5 357 4.2 102230 52
2012-03-06 08:44 51°16.813 2°53.112 7.5 356 4.2 102220 53
2012-03-06 08:45 51°16.957 2°52.911 5.9 353 4.2 102240 52
2012-03-06 08:46 51°17.103 2°52.709 6.5 355 4.2 102240 54
2012-03-06 08:47 51°17.236 2°52.481 7.4 355 4.1 102240 52
2012-03-06 08:48 51°17.377 2°52.26 7.3 352 4.1 102240 53
2012-03-06 08:49 51°17.521 2°52.053 7 354 4.1 102240 53
2012-03-06 08:50 51°17.667 2°51.848 7.1 352 4.1 102240 54
2012-03-06 08:51 51°17.804 2°51.645 5.9 359 4.1 102240 52
2012-03-06 08:52 51°17.886 2°51.596 6 351 4.1 102240 54
2012-03-06 08:53 51°17.907 2°51.607 4.2 331 4.1 102250 52
2012-03-06 08:54 51°17.9 2°51.609 3.8 304 4.1 102260 53
2012-03-06 08:55 51°17.891 2°51.608 3.5 309 4.1 102260 52
2012-03-06 08:56 51°17.878 2°51.608 4 304 4.2 102260 52
2012-03-06 08:57 51°17.866 2°51.608 4 303 4.3 102250 53
2012-03-06 08:58 51°17.852 2°51.608 4.2 310 4.3 102260 54
2012-03-06 08:59 51°17.839 2°51.61 4.3 304 4.4 102250 54
2012-03-06 09:00 51°17.824 2°51.611 5 307 4.4 102260 54
2012-03-06 09:01 51°17.81 2°51.613 4.1 304 4.5 102250 53
2012-03-06 09:02 51°17.796 2°51.617 4.9 311 4.6 102260 54
2012-03-06 09:03 51°17.784 2°51.623 4.8 311 4.7 102250 53
2012-03-06 09:04 51°17.772 2°51.631 4.5 307 4.8 102250 54
2012-03-06 09:05 51°17.76 2°51.64 4.9 305 4.9 102250 52
2012-03-06 09:06 51°17.749 2°51.648 4.7 302 4.9 102260 53
2012-03-06 09:07 51°17.738 2°51.658 5.1 307 4.9 102250 52
2012-03-06 09:08 51°17.751 2°51.722 6.7 338 4.9 102260 52
2012-03-06 09:09 51°17.816 2°51.675 5.1 4 4.8 102250 51
2012-03-06 09:10 51°17.903 2°51.481 7.4 353 4.6 102250 52
2012-03-06 09:11 51°18.041 2°51.273 7.8 352 4.5 102250 52
2012-03-06 09:12 51°18.188 2°51.076 7.7 350 4.3 102240 52
2012-03-06 09:13 51°18.327 2°50.864 7.3 351 4.3 102240 53
2012-03-06 09:14 51°18.463 2°50.76 6.2 351 4.2 102250 52
2012-03-06 09:15 51°18.531 2°50.83 6.3 306 4.2 102250 53
2012-03-06 09:16 51°18.525 2°50.95 6.6 310 4.3 102250 52
2012-03-06 09:17 51°18.516 2°50.986 4.6 309 4.4 102260 52
2012-03-06 09:18 51°18.509 2°50.993 4.9 303 4.5 102260 52
2012-03-06 09:19 51°18.499 2°51.004 2.6 306 4.6 102260 53
2012-03-06 09:20 51°18.489 2°51.018 4.5 308 4.7 102270 53
2012-03-06 09:21 51°18.479 2°51.034 4.3 305 4.8 102270 52
2012-03-06 09:22 51°18.47 2°51.051 4.6 307 4.9 102280 52
2012-03-06 09:23 51°18.462 2°51.07 5 303 4.9 102270 53
2012-03-06 09:24 51°18.454 2°51.089 4.3 303 4.9 102270 52
2012-03-06 09:25 51°18.447 2°51.108 4.4 310 5 102280 53
2012-03-06 09:26 51°18.438 2°51.129 4.3 305 5 102280 53
2012-03-06 09:27 51°18.428 2°51.149 4.7 305 5 102280 53
2012-03-06 09:28 51°18.419 2°51.167 4.9 311 5 102270 52
2012-03-06 09:29 51°18.41 2°51.183 4.4 308 5 102280 51
2012-03-06 09:30 51°18.401 2°51.199 5.2 304 5 102270 52
2012-03-06 09:31 51°18.393 2°51.217 5.1 308 4.9 102270 51
2012-03-06 09:32 51°18.385 2°51.233 4.8 311 4.9 102260 52
2012-03-06 09:33 51°18.379 2°51.248 4.6 310 4.8 102270 52
2012-03-06 09:34 51°18.372 2°51.263 5.1 309 4.7 102270 51
2012-03-06 09:35 51°18.367 2°51.277 5 304 4.7 102270 51
2012-03-06 09:36 51°18.361 2°51.29 6.2 303 4.6 102270 51
2012-03-06 09:37 51°18.355 2°51.304 4.8 304 4.6 102280 51
2012-03-06 09:38 51°18.35 2°51.318 5.6 305 4.5 102270 52
2012-03-06 09:39 51°18.344 2°51.335 5.4 309 4.5 102280 52
2012-03-06 09:40 51°18.34 2°51.353 5.4 309 4.5 102280 51
2012-03-06 09:41 51°18.337 2°51.37 5.4 308 4.5 102280 51
2012-03-06 09:42 51°18.334 2°51.388 5.6 303 4.4 102290 51
2012-03-06 09:43 51°18.33 2°51.405 5.9 302 4.5 102280 52
2012-03-06 09:44 51°18.328 2°51.42 4.9 308 4.5 102280 52
2012-03-06 09:45 51°18.326 2°51.434 4.8 308 4.5 102280 51
2012-03-06 09:46 51°18.324 2°51.448 5.8 305 4.4 102270 52
2012-03-06 09:47 51°18.321 2°51.463 4.7 303 4.4 102280 52
2012-03-06 09:48 51°18.318 2°51.479 6.5 311 4.4 102280 51
2012-03-06 09:49 51°18.315 2°51.496 5.8 308 4.4 102280 52
2012-03-06 09:50 51°18.311 2°51.513 5.3 305 4.5 102280 52
2012-03-06 09:51 51°18.308 2°51.531 4.3 305 4.5 102290 52
2012-03-06 09:52 51°18.306 2°51.55 4.8 311 4.5 102290 50
2012-03-06 09:53 51°18.304 2°51.571 5.1 302 4.5 102280 50
2012-03-06 09:54 51°18.303 2°51.593 4.8 306 4.5 102290 51
2012-03-06 09:55 51°18.292 2°51.625 4.8 310 4.5 102290 50
2012-03-06 09:56 51°18.252 2°51.614 3.2 58 4.5 102290 50
2012-03-06 09:57 51°18.262 2°51.486 -999 20 4.5 102300 50
2012-03-06 09:58 51°18.351 2°51.288 2.4 6 4.6 102300 50
2012-03-06 09:59 51°18.467 2°51.075 1.9 3 4.5 102300 50
2012-03-06 10:00 51°18.542 2°50.924 4.4 5 4.5 102300 50
2012-03-06 10:01 51°18.609 2°50.99 5 346 4.5 102290 50
2012-03-06 10:02 51°18.623 2°51.039 3.9 326 4.5 102290 51
2012-03-06 10:03 51°18.628 2°51.073 4.3 304 4.6 102300 52
2012-03-06 10:04 51°18.633 2°51.102 4.4 308 4.5 102290 51
2012-03-06 10:05 51°18.636 2°51.127 4 309 4.5 102300 51
2012-03-06 10:06 51°18.629 2°51.164 4.8 304 4.5 102300 51
2012-03-06 10:07 51°18.596 2°51.288 8.5 327 4.6 102300 49
2012-03-06 10:08 51°18.636 2°51.585 8.4 339 4.6 102300 49
2012-03-06 10:09 51°18.765 2°51.877 9.5 339 4.6 102290 50
2012-03-06 10:10 51°18.905 2°52.159 9.8 339 4.6 102300 49
2012-03-06 10:11 51°19.045 2°52.442 9.7 337 4.6 102310 50
2012-03-06 10:12 51°19.172 2°52.739 9.2 337 4.6 102310 49
2012-03-06 10:13 51°19.302 2°53.03 9.7 340 4.6 102300 49
2012-03-06 10:14 51°19.468 2°53.267 8.7 343 4.6 102320 49
2012-03-06 10:15 51°19.637 2°53.5 9.6 340 4.6 102320 48
2012-03-06 10:16 51°19.799 2°53.747 9 338 4.6 102310 49
2012-03-06 10:17 51°19.954 2°54.01 10.2 340 4.6 102320 49
2012-03-06 10:18 51°20.115 2°54.261 7.8 339 4.5 102340 48
2012-03-06 10:19 51°20.274 2°54.516 9.1 340 4.6 102320 49
2012-03-06 10:20 51°20.441 2°54.755 8.3 340 4.5 102330 48
2012-03-06 10:21 51°20.608 2°55.001 10.6 336 4.5 102340 48
2012-03-06 10:22 51°20.766 2°55.26 9.9 336 4.6 102330 48
2012-03-06 10:23 51°20.928 2°55.511 7.2 337 4.6 102350 48
2012-03-06 10:24 51°21.097 2°55.752 8.3 342 4.5 102340 49
2012-03-06 10:25 51°21.265 2°55.996 8.9 338 4.5 102340 47
2012-03-06 10:26 51°21.425 2°56.256 7 337 4.5 102350 48
2012-03-06 10:27 51°21.587 2°56.515 7.7 339 4.5 102350 48
2012-03-06 10:28 51°21.756 2°56.766 9.4 338 4.5 102340 48
2012-03-06 10:29 51°21.921 2°57.02 7.9 335 4.5 102340 49
2012-03-06 10:30 51°22.087 2°57.277 7.4 341 4.5 102340 48
2012-03-06 10:31 51°22.246 2°57.546 7.4 343 4.5 102340 48
2012-03-06 10:32 51°22.42 2°57.791 9.2 338 4.5 102360 49
2012-03-06 10:33 51°22.592 2°58.039 8.3 337 4.5 102340 48
2012-03-06 10:34 51°22.789 2°58.217 6.9 344 4.5 102340 48
2012-03-06 10:35 51°23.007 2°58.322 6.9 343 4.5 102350 48
2012-03-06 10:36 51°23.226 2°58.424 7.2 346 4.4 102350 47
2012-03-06 10:37 51°23.442 2°58.522 7.2 344 4.4 102350 48
2012-03-06 10:38 51°23.66 2°58.616 6.4 341 4.4 102350 49
2012-03-06 10:39 51°23.878 2°58.69 6.3 344 4.4 102350 49
2012-03-06 10:40 51°24.096 2°58.715 6.5 343 4.4 102350 49
2012-03-06 10:41 51°24.311 2°58.761 6.8 342 4.4 102360 49
2012-03-06 10:42 51°24.527 2°58.794 7.1 342 4.4 102360 48
2012-03-06 10:43 51°24.741 2°58.865 7.5 342 4.3 102360 49
2012-03-06 10:44 51°24.951 2°58.958 8.9 343 4.4 102360 49
2012-03-06 10:45 51°25.149 2°59.117 7.5 342 4.3 102360 48
2012-03-06 10:46 51°25.346 2°59.283 8.7 343 4.3 102370 49
2012-03-06 10:47 51°25.529 2°59.487 7.9 341 4.4 102360 48
2012-03-06 10:48 51°25.711 2°59.694 8.3 343 4.4 102370 49
2012-03-06 10:49 51°25.898 2°59.889 8.3 339 4.4 102370 49
2012-03-06 10:50 51°26.084 3°0.09 8.9 341 4.4 102380 49
2012-03-06 10:51 51°26.257 3°0.322 8 337 4.4 102380 48
2012-03-06 10:52 51°26.422 3°0.571 10.2 338 4.4 102390 48
2012-03-06 10:53 51°26.593 3°0.812 6.7 336 4.4 102390 47
2012-03-06 10:54 51°26.765 3°1.053 7.1 337 4.4 102400 47
2012-03-06 10:55 51°26.942 3°1.286 7.3 339 4.4 102400 48
2012-03-06 10:56 51°27.11 3°1.544 8.6 338 4.5 102390 48
2012-03-06 10:57 51°27.288 3°1.785 7.7 336 4.4 102410 47
2012-03-06 10:58 51°27.465 3°2.029 8.1 337 4.4 102410 47
2012-03-06 10:59 51°27.632 3°2.287 7.1 338 4.4 102390 47
2012-03-06 11:00 51°27.791 3°2.555 6.9 338 4.5 102390 48
2012-03-06 11:01 51°27.955 3°2.805 7.9 337 4.5 102400 48
2012-03-06 11:02 51°28.11 3°3.072 7.4 337 4.5 102420 48
2012-03-06 11:03 51°28.276 3°3.316 6.7 334 4.5 102410 47
2012-03-06 11:04 51°28.356 3°3.487 4.2 329 4.5 102410 48
2012-03-06 11:05 51°28.386 3°3.587 2.8 328 4.6 102430 47
2012-03-06 11:06 51°28.404 3°3.626 1.5 345 4.6 102430 47
2012-03-06 11:07 51°28.408 3°3.639 0.3 341 4.5 102430 46
2012-03-06 11:08 51°28.413 3°3.648 -999 338 4.5 102430 47
2012-03-06 11:09 51°28.419 3°3.656 0.5 326 4.5 102440 46
2012-03-06 11:10 51°28.427 3°3.666 0.5 332 4.6 102450 47
2012-03-06 11:11 51°28.436 3°3.68 2 328 4.6 102420 47
2012-03-06 11:12 51°28.42 3°3.796 5.4 302 4.7 102430 46
2012-03-06 11:13 51°28.327 3°4.03 6.6 323 4.7 102430 47
2012-03-06 11:14 51°28.188 3°4.268 7 305 4.7 102420 48
2012-03-06 11:15 51°28.044 3°4.506 6.5 322 4.7 102440 48
2012-03-06 11:16 51°27.899 3°4.739 6.7 303 4.8 102440 47
2012-03-06 11:17 51°27.755 3°4.978 8.5 305 4.8 102440 48
2012-03-06 11:18 51°27.623 3°5.208 5.7 305 4.9 102440 48
2012-03-06 11:19 51°27.548 3°5.346 3.8 305 4.8 102440 47
2012-03-06 11:20 51°27.493 3°5.337 0.1 54 4.8 102450 47
2012-03-06 11:21 51°27.489 3°5.304 -999 40 4.8 102450 48
2012-03-06 11:22 51°27.501 3°5.289 1.2 44 4.8 102450 49
2012-03-06 11:23 51°27.515 3°5.283 1.7 42 4.8 102460 48
2012-03-06 11:24 51°27.528 3°5.282 1.2 51 4.7 102460 48
2012-03-06 11:25 51°27.542 3°5.287 1.1 51 4.7 102460 49
2012-03-06 11:26 51°27.555 3°5.295 1.2 54 4.7 102460 49
2012-03-06 11:27 51°27.567 3°5.305 1.2 52 4.7 102460 49
2012-03-06 11:28 51°27.58 3°5.315 1.2 51 4.6 102460 48
2012-03-06 11:29 51°27.592 3°5.327 1 51 4.6 102460 49
2012-03-06 11:30 51°27.604 3°5.34 0.2 53 4.6 102470 49
2012-03-06 11:31 51°27.616 3°5.352 -999 54 4.8 102470 50
2012-03-06 11:32 51°27.626 3°5.366 1.1 54 5.1 102470 50
2012-03-06 11:33 51°27.636 3°5.38 1.3 51 5.3 102480 49
2012-03-06 11:34 51°27.646 3°5.393 0.8 51 5.2 102480 48
2012-03-06 11:35 51°27.656 3°5.407 1.2 51 5.1 102470 48
2012-03-06 11:36 51°27.666 3°5.421 0.8 59 5 102490 47
2012-03-06 11:37 51°27.676 3°5.436 1.2 53 4.9 102480 48
2012-03-06 11:38 51°27.685 3°5.451 1.3 51 4.9 102490 48
2012-03-06 11:39 51°27.695 3°5.466 0.9 53 4.9 102490 49
2012-03-06 11:40 51°27.702 3°5.482 1.1 308 4.9 102490 48
2012-03-06 11:41 51°27.711 3°5.5 1.3 281 4.9 102490 48
2012-03-06 11:42 51°27.719 3°5.517 1.9 309 4.9 102490 49
2012-03-06 11:43 51°27.726 3°5.535 2.3 305 4.9 102480 49
2012-03-06 11:44 51°27.733 3°5.551 3.1 309 4.9 102490 47
2012-03-06 11:45 51°27.74 3°5.568 2.3 302 4.9 102490 48
2012-03-06 11:46 51°27.748 3°5.585 2.3 280 5 102490 48
2012-03-06 11:47 51°27.748 3°5.601 2.2 281 5 102490 49
2012-03-06 11:48 51°27.693 3°5.622 3.1 288 5 102490 48
2012-03-06 11:49 51°27.624 3°5.647 2.6 285 4.9 102490 48
2012-03-06 11:50 51°27.576 3°5.663 1.7 283 4.9 102490 49
2012-03-06 11:51 51°27.527 3°5.669 2.6 280 5 102490 48
2012-03-06 11:52 51°27.473 3°5.665 2.6 279 5 102490 47
2012-03-06 11:53 51°27.416 3°5.664 2.9 286 5 102490 49
2012-03-06 11:54 51°27.359 3°5.679 3 281 5 102490 48
2012-03-06 11:55 51°27.304 3°5.714 3.1 283 5 102490 49
2012-03-06 11:56 51°27.251 3°5.762 3.2 308 4.9 102480 48
2012-03-06 11:57 51°27.201 3°5.826 3 279 4.9 102480 48
2012-03-06 11:58 51°27.161 3°5.914 3.5 284 4.9 102480 49
2012-03-06 11:59 51°27.139 3°6.026 3.6 286 4.9 102480 49
2012-03-06 12:00 51°27.138 3°6.153 3.4 287 4.9 102480 47
2012-03-06 12:01 51°27.149 3°6.287 4.1 326 4.9 102480 49
2012-03-06 12:02 51°27.155 3°6.42 3.3 285 4.9 102480 49
2012-03-06 12:03 51°27.176 3°6.54 2.8 284 4.9 102490 49
2012-03-06 12:04 51°27.218 3°6.641 2.7 279 4.9 102500 49
2012-03-06 12:05 51°27.264 3°6.736 2.6 286 4.9 102500 49
2012-03-06 12:06 51°27.313 3°6.83 2 280 4.9 102490 48
2012-03-06 12:07 51°27.363 3°6.921 2.1 285 4.9 102490 49
2012-03-06 12:08 51°27.414 3°7.011 1.7 283 4.9 102480 47
2012-03-06 12:09 51°27.462 3°7.104 1.8 286 4.8 102500 49
2012-03-06 12:10 51°27.514 3°7.191 1.9 332 4.9 102490 48
2012-03-06 12:11 51°27.568 3°7.272 1.4 278 4.8 102490 48
2012-03-06 12:12 51°27.622 3°7.35 1.9 334 4.8 102490 48
2012-03-06 12:13 51°27.681 3°7.423 2.1 282 4.8 102490 48
2012-03-06 12:14 51°27.741 3°7.494 2 340 4.8 102490 48
2012-03-06 12:15 51°27.799 3°7.566 1.9 280 4.7 102510 49
2012-03-06 12:16 51°27.857 3°7.638 1.8 284 4.7 102500 48
2012-03-06 12:17 51°27.913 3°7.714 1.9 284 4.7 102510 48
2012-03-06 12:18 51°27.97 3°7.791 1.6 278 4.7 102490 48
2012-03-06 12:19 51°28.026 3°7.869 1.3 281 4.6 102500 48
2012-03-06 12:20 51°28.083 3°7.946 1.3 285 4.7 102510 48
2012-03-06 12:21 51°28.13 3°8.033 1.2 283 4.7 102510 48
2012-03-06 12:22 51°28.163 3°8.131 2 285 4.8 102510 47
2012-03-06 12:23 51°28.179 3°8.234 1.8 280 4.8 102510 48
2012-03-06 12:24 51°28.188 3°8.34 1.9 280 4.9 102510 46
2012-03-06 12:25 51°28.197 3°8.446 2 285 4.9 102510 48
2012-03-06 12:26 51°28.198 3°8.55 2.1 285 4.9 102510 47
2012-03-06 12:27 51°28.193 3°8.649 1.6 279 5 102510 48
2012-03-06 12:28 51°28.182 3°8.742 1.4 310 5 102520 48
2012-03-06 12:29 51°28.164 3°8.826 1 279 4.9 102520 47
2012-03-06 12:30 51°28.136 3°8.889 -999 283 5 102520 47
2012-03-06 12:31 51°28.117 3°8.915 -999 283 5 102520 48
2012-03-06 12:32 51°28.108 3°8.936 -999 283 5 102520 47
2012-03-06 12:33 51°28.106 3°8.959 -999 283 5.1 102520 48
2012-03-06 12:34 51°28.099 3°8.976 0.5 301 5.1 102520 48
2012-03-06 12:35 51°28.034 3°8.934 4 286 5.1 102510 47
2012-03-06 12:36 51°27.896 3°8.815 5 281 5 102510 48
2012-03-06 12:37 51°27.741 3°8.659 4.9 287 4.9 102520 47
2012-03-06 12:38 51°27.623 3°8.432 4.9 280 4.9 102510 46
2012-03-06 12:39 51°27.512 3°8.195 5.1 280 4.9 102510 48
2012-03-06 12:40 51°27.397 3°7.959 5.6 282 4.8 102510 46
2012-03-06 12:41 51°27.273 3°7.733 4.6 285 4.8 102500 48
2012-03-06 12:42 51°27.154 3°7.5 4.8 282 4.9 102510 47
2012-03-06 12:43 51°27.025 3°7.281 5.4 280 4.8 102510 48
2012-03-06 12:44 51°26.908 3°7.044 5.8 286 4.9 102510 47
2012-03-06 12:45 51°26.783 3°6.823 5.5 329 4.9 102500 48
2012-03-06 12:46 51°26.655 3°6.607 5.4 334 4.8 102510 48
2012-03-06 12:47 51°26.52 3°6.408 5 329 4.8 102510 49
2012-03-06 12:48 51°26.386 3°6.215 5.8 324 4.8 102510 49
2012-03-06 12:49 51°26.256 3°6.013 5.9 323 4.8 102500 49
2012-03-06 12:50 51°26.133 3°5.808 4.8 320 4.8 102500 48
2012-03-06 12:51 51°26.004 3°5.616 5.7 321 4.8 102500 49
2012-03-06 12:52 51°25.879 3°5.417 5.1 308 4.8 102500 48
2012-03-06 12:53 51°25.779 3°5.186 5.2 306 4.8 102490 48
2012-03-06 12:54 51°25.681 3°4.953 5.7 304 4.9 102490 48
2012-03-06 12:55 51°25.575 3°4.727 4.8 323 4.9 102480 49
2012-03-06 12:56 51°25.474 3°4.494 6.2 310 4.9 102480 49
2012-03-06 12:57 51°25.384 3°4.244 4.7 304 4.9 102490 49
2012-03-06 12:58 51°25.296 3°3.995 4.5 309 4.9 102500 48
2012-03-06 12:59 51°25.217 3°3.734 4.1 326 4.9 102490 48
2012-03-06 13:00 51°25.13 3°3.482 4.5 304 4.9 102500 49
2012-03-06 13:01 51°25.043 3°3.227 4.1 306 4.9 102500 48
2012-03-06 13:02 51°24.955 3°2.973 4.1 326 4.9 102500 49
2012-03-06 13:03 51°24.871 3°2.714 5 303 4.9 102500 49
2012-03-06 13:04 51°24.784 3°2.456 4.2 302 4.9 102500 49
2012-03-06 13:05 51°24.718 3°2.182 4 303 4.8 102500 50
2012-03-06 13:06 51°24.645 3°1.91 4.1 326 4.8 102500 50
2012-03-06 13:07 51°24.569 3°1.643 4.7 329 4.8 102500 50
2012-03-06 13:08 51°24.496 3°1.376 4.8 327 4.8 102500 49
2012-03-06 13:09 51°24.419 3°1.114 4.8 302 4.8 102510 49
2012-03-06 13:10 51°24.343 3°0.852 5 323 4.9 102510 49
2012-03-06 13:11 51°24.225 3°0.639 4.6 326 4.9 102510 48
2012-03-06 13:12 51°24.097 3°0.439 5.2 330 4.9 102510 48
2012-03-06 13:13 51°23.98 3°0.22 5.1 331 4.9 102520 49
2012-03-06 13:14 51°23.856 3°0.011 5.1 333 4.9 102510 49
2012-03-06 13:15 51°23.736 2°59.795 4.1 330 4.9 102510 49
2012-03-06 13:16 51°23.622 2°59.574 5.2 333 4.9 102510 48
2012-03-06 13:17 51°23.498 2°59.364 4.5 329 4.9 102510 49
2012-03-06 13:18 51°23.373 2°59.159 4.4 328 4.9 102500 48
2012-03-06 13:19 51°23.258 2°58.938 4.5 329 4.9 102510 48
2012-03-06 13:20 51°23.141 2°58.722 4.5 325 5 102510 47
2012-03-06 13:21 51°23.023 2°58.504 4.7 325 5.1 102500 47
2012-03-06 13:22 51°22.879 2°58.333 4.9 305 5.1 102500 48
2012-03-06 13:23 51°22.73 2°58.169 5.1 308 5.2 102500 47
2012-03-06 13:24 51°22.584 2°57.998 5 302 5.3 102500 47
2012-03-06 13:25 51°22.436 2°57.831 4.5 308 5.3 102500 48
2012-03-06 13:26 51°22.295 2°57.651 4.3 323 5.4 102490 47
2012-03-06 13:27 51°22.16 2°57.457 3.9 308 5.4 102500 47
2012-03-06 13:28 51°22.021 2°57.276 4.8 309 5.4 102500 45
2012-03-06 13:29 51°21.883 2°57.374 6.3 322 5.4 102500 47
2012-03-06 13:30 51°21.727 2°57.573 7 305 5.4 102500 46
2012-03-06 13:31 51°21.56 2°57.766 6.6 304 5.5 102490 47
2012-03-06 13:32 51°21.41 2°58 8.3 301 5.5 102490 47
2012-03-06 13:33 51°21.272 2°58.257 8.9 324 5.5 102490 47
2012-03-06 13:34 51°21.168 2°58.552 9.2 301 5.5 102490 47
2012-03-06 13:35 51°21.102 2°58.878 7.6 328 5.4 102490 47
2012-03-06 13:36 51°21.028 2°59.197 8.3 328 5.3 102480 46
2012-03-06 13:37 51°20.929 2°59.493 8.4 326 5.3 102490 48
2012-03-06 13:38 51°20.826 2°59.791 10.3 327 5.3 102490 48
2012-03-06 13:39 51°20.721 3°0.09 8.9 305 5.2 102490 48
2012-03-06 13:40 51°20.621 3°0.379 8.9 326 5.2 102490 48
2012-03-06 13:41 51°20.521 3°0.668 9.6 327 5.2 102480 49
2012-03-06 13:42 51°20.433 3°0.946 9.7 327 5.2 102490 48
2012-03-06 13:43 51°20.362 3°1.187 6.8 331 5.2 102490 48
2012-03-06 13:44 51°20.378 3°1.311 4.2 341 5.2 102500 46
2012-03-06 13:45 51°20.409 3°1.399 4 342 5.1 102490 47
2012-03-06 13:46 51°20.442 3°1.476 3.4 344 5.1 102490 47
2012-03-06 13:47 51°20.478 3°1.546 4 343 5 102490 48
2012-03-06 13:48 51°20.51 3°1.629 3.9 339 5 102500 48
2012-03-06 13:49 51°20.537 3°1.723 3.9 333 5 102500 48
2012-03-06 13:50 51°20.56 3°1.815 4.2 334 5 102490 48
2012-03-06 13:51 51°20.579 3°1.905 3.6 333 5 102500 48
2012-03-06 13:52 51°20.599 3°1.992 3.6 338 5 102500 49
2012-03-06 13:53 51°20.623 3°2.077 3.8 339 5 102500 49
2012-03-06 13:54 51°20.646 3°2.161 3.3 336 5 102500 48
2012-03-06 13:55 51°20.666 3°2.246 3.3 341 4.9 102500 49
2012-03-06 13:56 51°20.688 3°2.328 3 341 4.9 102490 50
2012-03-06 13:57 51°20.718 3°2.402 3.8 344 4.9 102500 49
2012-03-06 13:58 51°20.75 3°2.476 3.7 342 4.9 102490 50
2012-03-06 13:59 51°20.772 3°2.558 3.8 340 4.9 102490 49
2012-03-06 14:00 51°20.789 3°2.641 4.1 339 4.9 102500 48
2012-03-06 14:01 51°20.806 3°2.723 3.9 341 4.9 102500 50
2012-03-06 14:02 51°20.826 3°2.805 4.3 342 4.9 102490 49
2012-03-06 14:03 51°20.849 3°2.886 4.1 343 4.9 102490 49
2012-03-06 14:04 51°20.871 3°2.97 4 341 4.9 102480 49
2012-03-06 14:05 51°20.891 3°3.055 4.4 344 4.9 102490 50
2012-03-06 14:06 51°20.908 3°3.142 4.1 341 4.9 102490 50
2012-03-06 14:07 51°20.925 3°3.228 4.6 345 4.9 102480 49
2012-03-06 14:08 51°20.945 3°3.312 4.7 345 4.9 102490 49
2012-03-06 14:09 51°20.967 3°3.393 4.5 344 4.9 102490 49
2012-03-06 14:10 51°20.989 3°3.475 4.3 340 4.9 102500 50
2012-03-06 14:11 51°21.008 3°3.556 4.2 337 4.9 102490 50
2012-03-06 14:12 51°21.025 3°3.641 4.9 338 4.9 102490 51
2012-03-06 14:13 51°21.042 3°3.724 4.5 339 4.9 102490 49
2012-03-06 14:14 51°21.063 3°3.806 4.7 340 4.9 102490 50
2012-03-06 14:15 51°21.087 3°3.886 3.5 338 4.9 102490 51
2012-03-06 14:16 51°21.113 3°3.966 5.1 338 4.9 102500 50
2012-03-06 14:17 51°21.137 3°4.047 4.5 339 4.9 102510 50
2012-03-06 14:18 51°21.16 3°4.13 3.8 340 4.9 102510 49
2012-03-06 14:19 51°21.183 3°4.213 3.9 337 4.9 102510 49
2012-03-06 14:20 51°21.208 3°4.298 3.8 338 4.9 102520 50
2012-03-06 14:21 51°21.23 3°4.39 4.4 333 5 102510 49
2012-03-06 14:22 51°21.232 3°4.487 4.2 327 5 102520 49
2012-03-06 14:23 51°21.218 3°4.577 3.9 304 5.1 102510 50
2012-03-06 14:24 51°21.187 3°4.647 3.4 307 5 102510 48
2012-03-06 14:25 51°21.138 3°4.669 3 304 5.1 102510 50
2012-03-06 14:26 51°21.096 3°4.655 2.4 308 5.1 102510 49
2012-03-06 14:27 51°21.067 3°4.637 2.2 302 5.2 102510 51
2012-03-06 14:28 51°21.017 3°4.595 2.5 303 5.3 102500 50
2012-03-06 14:29 51°20.945 3°4.476 0.7 307 5.3 102500 50
2012-03-06 14:30 51°20.915 3°4.381 -999 54 5.3 102510 50
2012-03-06 14:31 51°20.904 3°4.296 0.1 51 5.4 102500 50
2012-03-06 14:32 51°20.888 3°4.121 0.6 305 5.4 102510 49
2012-03-06 14:33 51°20.84 3°3.848 2.2 311 5.5 102510 51
2012-03-06 14:34 51°20.787 3°3.559 2.9 307 5.5 102500 49
2012-03-06 14:35 51°20.736 3°3.267 2.6 309 5.6 102510 49
2012-03-06 14:36 51°20.678 3°2.981 3 325 5.6 102500 49
2012-03-06 14:37 51°20.626 3°2.693 3.2 330 5.7 102500 48
2012-03-06 14:38 51°20.59 3°2.399 2.7 328 5.7 102500 49
2012-03-06 14:39 51°20.536 3°2.113 3.7 309 5.7 102510 48
2012-03-06 14:40 51°20.47 3°1.834 3 304 5.7 102500 48
2012-03-06 14:41 51°20.401 3°1.554 4 308 5.7 102510 48
2012-03-06 14:42 51°20.334 3°1.273 4 304 5.7 102500 48
2012-03-06 14:43 51°20.277 3°0.985 2.9 309 5.7 102500 48
2012-03-06 14:44 51°20.228 3°0.695 4.6 305 5.7 102500 49
2012-03-06 14:45 51°20.168 3°0.412 4.3 309 5.8 102500 47
2012-03-06 14:46 51°20.099 3°0.135 4.8 280 5.7 102510 48
2012-03-06 14:47 51°20.039 2°59.851 4.2 283 5.8 102510 47
2012-03-06 14:48 51°19.98 2°59.565 4.8 310 5.8 102510 46
2012-03-06 14:49 51°19.923 2°59.277 4.1 304 5.8 102510 48
2012-03-06 14:50 51°19.86 2°58.995 4.7 282 5.8 102510 47
2012-03-06 14:51 51°19.788 2°58.719 4.2 305 5.8 102510 48
2012-03-06 14:52 51°19.733 2°58.432 5.1 279 5.8 102500 47
2012-03-06 14:53 51°19.66 2°58.148 5.4 305 5.8 102500 47
2012-03-06 14:54 51°19.593 2°57.86 5.2 283 5.8 102500 47
2012-03-06 14:55 51°19.535 2°57.568 4.7 304 5.8 102500 47
2012-03-06 14:56 51°19.47 2°57.283 4.6 278 5.8 102490 45
2012-03-06 14:57 51°19.406 2°57 4.7 302 5.8 102510 47
2012-03-06 14:58 51°19.342 2°56.716 4.7 286 5.8 102500 47
2012-03-06 14:59 51°19.282 2°56.43 4.3 280 5.8 102510 47
2012-03-06 15:00 51°19.219 2°56.146 5.4 308 5.8 102510 47
2012-03-06 15:01 51°19.138 2°55.874 5 281 5.8 102510 46
2012-03-06 15:02 51°19.069 2°55.592 4.2 305 5.8 102510 47
2012-03-06 15:03 51°18.995 2°55.312 4.2 305 5.8 102510 46
2012-03-06 15:04 51°18.921 2°55.03 4.6 307 5.9 102520 46
2012-03-06 15:05 51°18.838 2°54.754 4.5 323 5.9 102520 47
2012-03-06 15:06 51°18.759 2°54.474 5 303 5.9 102520 47
2012-03-06 15:07 51°18.69 2°54.186 4.8 305 5.9 102510 47
2012-03-06 15:08 51°18.617 2°53.903 5 281 5.9 102510 47
2012-03-06 15:09 51°18.53 2°53.629 5.1 303 5.9 102500 47
2012-03-06 15:10 51°18.448 2°53.352 5.2 285 5.9 102500 46
2012-03-06 15:11 51°18.372 2°53.072 5.1 307 5.9 102500 47
2012-03-06 15:12 51°18.267 2°52.82 5.6 302 5.9 102500 46
2012-03-06 15:13 51°18.123 2°52.629 6.6 302 6 102500 47
2012-03-06 15:14 51°17.96 2°52.483 5.7 309 6 102490 47
2012-03-06 15:15 51°17.785 2°52.388 6.5 322 6 102490 46
2012-03-06 15:16 51°17.602 2°52.351 6.8 279 6 102490 46
2012-03-06 15:17 51°17.422 2°52.359 6.8 278 6 102480 47
2012-03-06 15:18 51°17.243 2°52.39 8.7 325 6 102480 46
2012-03-06 15:19 51°17.071 2°52.464 8.2 286 6.1 102480 46
2012-03-06 15:20 51°16.911 2°52.588 8.9 332 6.1 102480 45
2012-03-06 15:21 51°16.75 2°52.71 8.1 284 6.1 102480 45
2012-03-06 15:22 51°16.581 2°52.816 7.5 284 6.1 102490 45
2012-03-06 15:23 51°16.422 2°52.942 9.4 333 6.1 102490 45
2012-03-06 15:24 51°16.274 2°53.092 8.4 336 6.1 102490 43
2012-03-06 15:25 51°16.117 2°53.223 9.3 285 6.2 102480 45
2012-03-06 15:26 51°15.96 2°53.348 9.9 333 6.2 102490 44
2012-03-06 15:27 51°15.795 2°53.448 10.4 335 6.3 102490 44
2012-03-06 15:28 51°15.636 2°53.567 8.9 282 6.3 102480 42
2012-03-06 15:29 51°15.486 2°53.707 10.2 338 6.3 102480 44
2012-03-06 15:30 51°15.344 2°53.87 9.7 340 6.2 102480 43
2012-03-06 15:31 51°15.218 2°54.059 9.1 342 6.2 102490 43
2012-03-06 15:32 51°15.092 2°54.249 7.8 337 6.2 102490 43
2012-03-06 15:33 51°14.959 2°54.429 9.1 335 6.2 102500 43
2012-03-06 15:34 51°14.83 2°54.614 8.3 336 6.2 102500 42
2012-03-06 15:35 51°14.701 2°54.793 8.4 335 6.3 102490 43
2012-03-06 15:36 51°14.57 2°54.961 9 281 6.3 102490 42
2012-03-06 15:37 51°14.432 2°55.123 10 281 6.3 102490 43
2012-03-06 15:38 51°14.306 2°55.256 7.3 282 6.3 102500 42
2012-03-06 15:39 51°14.197 2°55.355 9.1 283 6.3 102500 43
2012-03-06 15:40 51°14.086 2°55.44 8.5 280 6.3 102500 44
2012-03-06 15:41 51°13.996 2°55.511 7.4 281 6.3 102490 43
2012-03-06 15:42 51°13.914 2°55.574 8.1 278 6.3 102490 44
2012-03-06 15:43 51°13.823 2°55.644 8.4 330 6.2 102490 43
2012-03-06 15:44 51°13.746 2°55.723 6.6 286 6.3 102500 43
2012-03-06 15:45 51°13.701 2°55.81 6.4 280 6.3 102500 44
2012-03-06 15:46 51°13.662 2°55.899 6.1 284 6.2 102500 44
2012-03-06 15:47 51°13.643 2°55.991 5.9 345 6.2 102500 44